Hauptseite
METAR-TAF:

METAR-TAF

Flughäfen :

Bristol Airport

Bristol, England

Breite: 51-23N, Länge: 002-43W, Höhe: 189 m

Beobachtung

Neuester Wetterbericht von vor 30 Minuten, um 05:50 UTC
Wind 6 kt aus West/Nordwest
Temperatur -1°C
Luftfeuchtigkeit 100%
Luftdruck 999 hPa
Sichtweite 10 km oder mehr

METAR: EGGD 230550Z AUTO 29006KT 9999 NCD M01/M01 Q0999

Zeit: 06:20 (06:20 UTC)

Prognose

Neuester Wetterbericht von vor 1 Stunde und 25 Minuten, um 04:55 UTC
Gültige Prognose vom 23 um 06 UTC bis 24 um 06 UTC
Wind 7 kt aus West
Sichtweite 10 km oder mehr
Aufgelockert bewölkt in der Höhe von 2600 ft
Übergehend zu
vom 23 um 09 UTC bis 23 um 12 UTC
Wind 10 kt aus Nord/Nordwest
Übergehend zu
vom 23 um 18 UTC bis 23 um 21 UTC
Wind 5 kt aus Süd/Südwest

TAF: EGGD 230455Z 2306/2406 27007KT 9999 SCT026 BECMG 2309/2312 33010KT BECMG 2318/2321 20005KT

Wetterbeobachtungen und Prognosen von mehr als 4000 Flughäfen (METAR und TAF Bericht).

Die verfügbaren Stationen werden durch gelbe und rote Markierungen auf der Karte dargestellt.

Führen Sie die Maus auf sie, um den Namen der Station zu sehen.

Darauf klicken, um die Beobachtung von Wetterbeobachtungen und Prognosen zu sehen.

Um die Karte zu ändern : klicken Sie auf den grünen Tasten mit einem schwarzen Kreuz Zum Vergrößern, auf den grünen Button mit einem Gedankenstrich zu verkleinern, oder auf die grünen Pfeile für benachbarte Karten.


METAR-TAF: